Time;durP1;ratioP1;P1;durP2;ratioP2;P2;SDS_P1;SDS_P2;PMS_P1;PMS_P2;Temp;Humidity;BMP_temperature;BMP_pressure;BME280_temperature;BME280_humidity;BME280_pressure;Samples;Min_cycle;Max_cycle;Signal;HPM_P1;HPM_P2
2021/09/15 00:01:32;;;;;;;13.82;12.52;;;;;;;19.01;100.00;99034.56;5075039;28;20205;-73
2021/09/15 00:03:58;;;;;;;15.05;13.27;;;;;;;18.99;100.00;99031.13;5074844;28;20281;-72
2021/09/15 00:06:25;;;;;;;13.40;12.25;;;;;;;19.04;100.00;99037.84;5074940;28;20192;-74
2021/09/15 00:08:52;;;;;;;14.52;13.13;;;;;;;19.03;100.00;99030.66;5075061;28;20206;-73
2021/09/15 00:11:19;;;;;;;13.57;12.17;;;;;;;18.98;100.00;99026.69;5074888;28;20639;-73
2021/09/15 00:13:46;;;;;;;13.20;11.90;;;;;;;18.98;100.00;99027.53;5074801;28;20461;-73
2021/09/15 00:16:14;;;;;;;14.35;12.95;;;;;;;19.07;100.00;99015.69;5074625;28;20643;-73
2021/09/15 00:18:40;;;;;;;13.60;12.30;;;;;;;19.10;100.00;99017.25;5074471;28;20185;-73
2021/09/15 00:21:07;;;;;;;13.60;12.30;;;;;;;19.04;100.00;99023.31;5074639;28;20679;-72
2021/09/15 00:23:34;;;;;;;14.23;12.73;;;;;;;19.07;100.00;99012.09;5073614;28;20196;-73
2021/09/15 00:26:01;;;;;;;14.25;12.75;;;;;;;19.12;100.00;99010.59;5074423;28;20223;-73
2021/09/15 00:28:27;;;;;;;12.70;11.50;;;;;;;19.03;100.00;99013.44;5074007;28;20279;-73
2021/09/15 00:30:54;;;;;;;13.20;11.90;;;;;;;19.11;100.00;99021.69;5074548;28;20546;-74
2021/09/15 00:33:22;;;;;;;12.57;11.27;;;;;;;19.12;100.00;99026.97;5074371;28;20438;-74
2021/09/15 00:35:48;;;;;;;13.90;12.50;;;;;;;19.10;100.00;99019.97;5074251;28;20185;-73
2021/09/15 00:38:15;;;;;;;13.57;12.37;;;;;;;18.98;100.00;99008.44;5074072;28;20187;-73
2021/09/15 00:40:42;;;;;;;12.48;11.27;;;;;;;19.14;100.00;99007.72;5074497;28;20874;-72
2021/09/15 00:43:08;;;;;;;11.98;10.88;;;;;;;19.17;100.00;99016.47;5074302;28;20501;-73
2021/09/15 00:45:35;;;;;;;12.63;11.43;;;;;;;19.30;100.00;98999.66;5073954;28;20211;-72
2021/09/15 00:48:01;;;;;;;13.77;11.25;;;;;;;19.29;100.00;99008.88;5073831;28;20671;-73
2021/09/15 00:50:30;;;;;;;12.90;11.70;;;;;;;19.24;100.00;98994.81;5073936;28;20654;-73
2021/09/15 00:52:56;;;;;;;13.20;11.90;;;;;;;19.25;100.00;99001.16;5073905;28;20528;-72
2021/09/15 00:55:23;;;;;;;11.63;10.52;;;;;;;19.14;100.00;98996.81;5074172;28;20552;-72
2021/09/15 00:57:50;;;;;;;12.67;11.37;;;;;;;19.36;100.00;98993.56;5073597;28;20272;-73
2021/09/15 01:00:17;;;;;;;12.35;11.15;;;;;;;19.33;100.00;98988.44;5065842;28;20445;-75
2021/09/15 01:02:44;;;;;;;13.60;12.20;;;;;;;19.39;100.00;98984.19;5074014;28;20220;-73
2021/09/15 01:05:10;;;;;;;14.10;11.83;;;;;;;19.57;100.00;98989.59;5073758;28;20198;-74
2021/09/15 01:07:39;;;;;;;11.82;10.77;;;;;;;19.53;100.00;98990.94;5073960;28;20522;-73
2021/09/15 01:10:06;;;;;;;12.43;11.33;;;;;;;19.46;100.00;98993.44;5073236;28;20665;-73
2021/09/15 01:12:34;;;;;;;12.03;10.93;;;;;;;19.53;100.00;98991.78;5073697;28;20442;-73
2021/09/15 01:15:01;;;;;;;12.17;11.07;;;;;;;19.54;100.00;98995.41;5073530;28;20865;-73
2021/09/15 01:17:27;;;;;;;12.13;11.03;;;;;;;19.63;100.00;99001.75;5073474;28;20935;-73
2021/09/15 01:19:55;;;;;;;12.10;11.00;;;;;;;19.82;100.00;98993.34;5073692;28;20449;-73
2021/09/15 01:22:23;;;;;;;12.90;11.57;;;;;;;19.72;100.00;98988.03;5073528;28;20438;-73
2021/09/15 01:24:51;;;;;;;11.70;10.40;;;;;;;19.78;100.00;98986.50;5073470;28;20438;-74
2021/09/15 01:27:17;;;;;;;12.23;10.40;;;;;;;19.62;100.00;98987.22;5073050;28;20554;-73
2021/09/15 01:29:45;;;;;;;15.70;10.97;;;;;;;19.74;100.00;98988.72;5072982;28;20483;-74
2021/09/15 01:32:13;;;;;;;12.23;11.00;;;;;;;19.69;100.00;98979.28;5073261;28;20463;-74
2021/09/15 01:34:41;;;;;;;11.43;10.40;;;;;;;19.79;100.00;98969.09;5072841;28;20446;-74
2021/09/15 01:37:10;;;;;;;11.27;10.20;;;;;;;19.84;100.00;98968.63;5073266;28;20435;-74
2021/09/15 01:39:38;;;;;;;13.90;10.83;;;;;;;19.83;100.00;98972.34;5072787;28;20470;-74
2021/09/15 01:42:06;;;;;;;11.50;10.40;;;;;;;19.78;100.00;98965.50;5072826;28;20435;-74
2021/09/15 01:44:34;;;;;;;11.40;10.27;;;;;;;19.71;100.00;98974.50;5073226;28;20427;-74
2021/09/15 01:47:01;;;;;;;11.07;9.50;;;;;;;19.74;100.00;98969.59;5072796;28;20435;-74
2021/09/15 01:49:29;;;;;;;10.93;9.20;;;;;;;19.71;100.00;98975.38;5073046;28;20442;-74
2021/09/15 01:51:56;;;;;;;11.27;10.17;;;;;;;19.73;100.00;98965.13;5072858;28;20999;-72
2021/09/15 01:54:23;;;;;;;10.37;9.37;;;;;;;19.81;100.00;98963.47;5072628;28;20522;-73
2021/09/15 01:56:51;;;;;;;10.63;9.53;;;;;;;19.75;100.00;98954.06;5072707;28;20439;-74
2021/09/15 01:59:18;;;;;;;12.27;10.03;;;;;;;19.81;100.00;98960.72;5072939;28;20518;-73
2021/09/15 02:01:44;;;;;;;11.77;10.67;;;;;;;19.82;100.00;98948.81;5072591;28;20529;-73
2021/09/15 02:04:11;;;;;;;10.67;9.60;;;;;;;19.78;100.00;98964.66;5072976;28;20521;-73
2021/09/15 02:06:39;;;;;;;11.40;9.50;;;;;;;19.78;100.00;98953.72;5072918;28;20502;-73
2021/09/15 02:09:06;;;;;;;10.50;9.50;;;;;;;19.78;100.00;98959.19;5072278;28;20437;-73
2021/09/15 02:11:34;;;;;;;10.00;9.10;;;;;;;19.75;100.00;98954.91;5072421;28;20482;-73
2021/09/15 02:14:02;;;;;;;10.83;9.73;;;;;;;19.71;100.00;98964.44;5072622;28;20490;-73
2021/09/15 02:16:29;;;;;;;12.27;10.20;;;;;;;19.71;100.00;98952.66;5072974;28;20431;-72
2021/09/15 02:18:55;;;;;;;10.73;9.70;;;;;;;19.46;100.00;98959.84;5072770;28;20437;-73
2021/09/15 02:21:22;;;;;;;10.20;9.30;;;;;;;19.32;100.00;98947.66;5072618;28;20426;-73
2021/09/15 02:23:48;;;;;;;11.33;9.60;;;;;;;19.14;100.00;98954.00;5072327;28;20426;-74
2021/09/15 02:26:16;;;;;;;12.43;10.50;;;;;;;18.99;100.00;98947.41;5072333;28;20466;-73
2021/09/15 02:28:43;;;;;;;11.35;10.25;;;;;;;18.93;100.00;98951.63;5072856;28;20532;-73
2021/09/15 02:31:11;;;;;;;12.52;11.30;;;;;;;18.86;100.00;98957.88;5072590;28;20303;-74
2021/09/15 02:33:38;;;;;;;11.95;10.75;;;;;;;18.89;100.00;98958.41;5072529;28;20282;-74
2021/09/15 02:36:04;;;;;;;11.93;10.60;;;;;;;18.84;100.00;98952.59;5072194;28;20204;-74
2021/09/15 02:38:31;;;;;;;11.93;10.73;;;;;;;18.80;100.00;98953.91;5072417;28;20435;-74
2021/09/15 02:40:58;;;;;;;11.40;10.30;;;;;;;18.79;100.00;98945.88;5072973;28;20511;-74
2021/09/15 02:43:25;;;;;;;12.20;11.00;;;;;;;18.71;100.00;98939.31;5072195;28;20231;-74
2021/09/15 02:45:51;;;;;;;12.43;11.18;;;;;;;18.70;100.00;98944.91;5073991;28;20694;-74
2021/09/15 02:48:19;;;;;;;12.10;10.02;;;;;;;18.75;100.00;98948.06;5076617;28;20230;-74
2021/09/15 02:50:46;;;;;;;11.70;10.55;;;;;;;18.95;100.00;98949.63;5076685;28;20210;-74
2021/09/15 02:53:12;;;;;;;14.07;10.33;;;;;;;19.10;100.00;98949.88;5076669;28;20716;-74
2021/09/15 02:55:39;;;;;;;10.80;9.80;;;;;;;19.01;100.00;98949.97;5076053;28;20423;-73
2021/09/15 02:58:07;;;;;;;11.03;10.03;;;;;;;18.93;100.00;98956.25;5075996;28;20509;-73
2021/09/15 03:00:33;;;;;;;12.68;10.60;;;;;;;19.14;100.00;98964.91;5076017;28;20442;-74
2021/09/15 03:03:00;;;;;;;10.40;9.40;;;;;;;19.14;100.00;98967.66;5076049;28;20276;-73
2021/09/15 03:05:28;;;;;;;11.68;9.90;;;;;;;19.12;100.00;98968.81;5075540;28;20438;-74
2021/09/15 03:07:55;;;;;;;10.95;9.95;;;;;;;19.17;100.00;98977.38;5076151;28;20621;-73
2021/09/15 03:10:21;;;;;;;11.10;10.10;;;;;;;19.20;100.00;98971.63;5075587;28;20220;-73
2021/09/15 03:12:48;;;;;;;10.88;9.75;;;;;;;19.26;100.00;98970.13;5075580;28;20255;-74
2021/09/15 03:15:14;;;;;;;13.00;10.80;;;;;;;19.24;100.00;98966.69;5075720;28;20211;-74
2021/09/15 03:17:41;;;;;;;11.32;10.23;;;;;;;19.20;100.00;98968.00;5075599;28;20987;-74
2021/09/15 03:20:09;;;;;;;11.85;10.40;;;;;;;19.28;100.00;98973.53;5075591;28;20196;-73
2021/09/15 03:22:37;;;;;;;13.50;10.77;;;;;;;19.23;100.00;98975.91;5075536;28;20197;-75
2021/09/15 03:25:05;;;;;;;11.00;10.00;;;;;;;19.06;100.00;98974.91;5075551;28;20489;-73
2021/09/15 03:27:31;;;;;;;11.10;10.03;;;;;;;19.15;100.00;98982.13;5075406;28;20481;-73
2021/09/15 03:29:58;;;;;;;10.52;9.48;;;;;;;19.18;100.00;98981.84;5075345;28;20426;-73
2021/09/15 03:32:25;;;;;;;12.00;10.80;;;;;;;19.25;100.00;98974.72;5075743;28;20650;-73
2021/09/15 03:34:51;;;;;;;10.70;9.65;;;;;;;19.23;100.00;98971.28;5075502;28;20445;-73
2021/09/15 03:37:18;;;;;;;11.67;10.57;;;;;;;19.36;100.00;98959.97;5075215;28;20256;-73
2021/09/15 03:39:46;;;;;;;11.52;10.43;;;;;;;19.42;100.00;98967.47;5075083;28;20534;-73
2021/09/15 03:42:12;;;;;;;11.70;10.50;;;;;;;19.46;100.00;98977.06;5075197;28;20271;-73
2021/09/15 03:44:39;;;;;;;10.70;9.70;;;;;;;19.79;100.00;98982.75;5075758;28;20538;-73
2021/09/15 03:47:05;;;;;;;10.90;9.90;;;;;;;19.83;100.00;98995.09;5075454;28;20959;-72
2021/09/15 03:49:32;;;;;;;10.63;9.60;;;;;;;19.89;100.00;98983.47;5075423;28;20481;-73
2021/09/15 03:51:59;;;;;;;10.87;9.77;;;;;;;19.76;100.00;98991.25;5075185;28;20951;-73
2021/09/15 03:54:25;;;;;;;11.03;9.73;;;;;;;19.86;100.00;98989.28;5075285;28;20442;-72
2021/09/15 03:56:53;;;;;;;11.97;9.63;;;;;;;19.86;100.00;98994.75;5074549;28;20775;-73
2021/09/15 03:59:20;;;;;;;11.60;10.30;;;;;;;20.06;100.00;99000.81;5074880;28;20427;-73
2021/09/15 04:01:46;;;;;;;11.53;9.83;;;;;;;19.91;100.00;99002.44;5074712;28;20188;-74
2021/09/15 04:04:13;;;;;;;11.87;9.80;;;;;;;20.02;100.00;99004.88;5075446;28;20752;-72
2021/09/15 04:06:40;;;;;;;12.05;10.18;;;;;;;19.98;100.00;98998.03;5075557;28;20761;-75
2021/09/15 04:09:07;;;;;;;10.97;9.60;;;;;;;19.74;100.00;98996.91;5075521;28;20200;-74
2021/09/15 04:11:34;;;;;;;12.20;11.00;;;;;;;19.42;100.00;98991.22;5075051;28;20459;-73
2021/09/15 04:14:02;;;;;;;13.40;11.80;;;;;;;19.41;100.00;98997.69;5074917;28;20439;-73
2021/09/15 04:16:28;;;;;;;12.40;10.60;;;;;;;19.38;100.00;98998.88;5074601;28;20931;-74
2021/09/15 04:18:55;;;;;;;14.17;11.03;;;;;;;19.27;100.00;99000.00;5075253;28;20437;-74
2021/09/15 04:21:22;;;;;;;12.20;11.00;;;;;;;19.38;100.00;98994.25;5075166;28;20439;-74
2021/09/15 04:24:00;;;;;;;13.00;11.00;;;;;;;19.30;100.00;98990.63;5075311;28;20521;-74
2021/09/15 04:31:57;;;;;;;11.80;10.37;;;;;;;19.64;100.00;98995.28;5074837;28;20466;-74
2021/09/15 04:34:23;;;;;;;14.23;12.73;;;;;;;19.64;100.00;98989.81;5074689;28;20443;-73
2021/09/15 04:36:50;;;;;;;14.77;12.33;;;;;;;19.73;100.00;98994.34;5075011;28;20521;-74
2021/09/15 04:39:16;;;;;;;13.03;11.73;;;;;;;19.71;100.00;98996.38;5074552;28;20435;-74
2021/09/15 04:41:43;;;;;;;13.37;11.00;;;;;;;19.70;100.00;98989.22;5074401;28;20439;-74
2021/09/15 04:44:09;;;;;;;15.50;13.47;;;;;;;19.63;100.00;98983.50;5074739;28;20514;-74
2021/09/15 04:46:37;;;;;;;13.30;10.23;;;;;;;19.45;100.00;98980.84;5074945;28;20454;-72
2021/09/15 04:49:04;;;;;;;13.10;11.90;;;;;;;19.54;100.00;98984.47;5074357;28;20448;-74
2021/09/15 04:51:31;;;;;;;13.77;12.20;;;;;;;19.46;100.00;98989.88;5074536;28;20960;-74
2021/09/15 04:53:57;;;;;;;12.80;11.57;;;;;;;19.59;100.00;98982.97;5074252;28;20482;-74
2021/09/15 04:56:24;;;;;;;17.50;11.40;;;;;;;19.52;100.00;98981.91;5074610;28;20729;-74
2021/09/15 04:58:51;;;;;;;14.60;11.57;;;;;;;19.61;100.00;98971.88;5074130;28;20533;-73
2021/09/15 05:01:17;;;;;;;14.30;11.53;;;;;;;19.74;100.00;98977.78;5074486;28;20794;-74
2021/09/15 05:03:45;;;;;;;14.23;12.37;;;;;;;19.52;100.00;98965.50;5074301;28;20962;-74
2021/09/15 05:06:12;;;;;;;13.87;12.43;;;;;;;19.46;100.00;98962.56;5074220;28;20514;-74
2021/09/15 05:08:38;;;;;;;15.53;13.93;;;;;;;19.45;100.00;98961.72;5073393;28;20446;-74
2021/09/15 05:11:05;;;;;;;14.20;12.23;;;;;;;19.49;100.00;98954.94;5073373;28;20427;-73
2021/09/15 05:13:32;;;;;;;14.17;12.60;;;;;;;19.57;100.00;98960.41;5073987;28;20434;-74
2021/09/15 05:15:59;;;;;;;13.40;11.50;;;;;;;19.44;100.00;98959.16;5074008;28;20815;-74
2021/09/15 05:18:26;;;;;;;14.17;12.00;;;;;;;19.46;100.00;98955.22;5073729;28;20463;-74
2021/09/15 05:20:54;;;;;;;18.53;12.70;;;;;;;19.43;100.00;98962.91;5073494;28;20447;-74
2021/09/15 05:23:21;;;;;;;13.73;11.67;;;;;;;19.27;100.00;98961.78;5073409;28;20435;-73
2021/09/15 05:25:47;;;;;;;12.93;11.73;;;;;;;19.37;100.00;98962.50;5073890;28;20845;-73
2021/09/15 05:28:14;;;;;;;13.47;12.10;;;;;;;19.35;100.00;98964.53;5073515;28;20494;-74
2021/09/15 05:30:40;;;;;;;13.97;12.57;;;;;;;19.41;100.00;98962.22;5073696;28;20507;-73
2021/09/15 05:33:08;;;;;;;15.83;13.40;;;;;;;19.52;100.00;98970.13;5073191;28;20984;-74
2021/09/15 05:35:35;;;;;;;17.30;12.87;;;;;;;19.69;100.00;98961.00;5072932;28;20423;-73
2021/09/15 05:38:03;;;;;;;14.03;12.53;;;;;;;19.67;100.00;98964.91;5073333;28;20455;-73
2021/09/15 05:40:32;;;;;;;15.90;12.70;;;;;;;19.65;100.00;98959.63;5072760;28;20470;-74
2021/09/15 05:42:59;;;;;;;15.20;13.60;;;;;;;19.83;100.00;98966.88;5073350;28;20778;-74
2021/09/15 05:45:25;;;;;;;14.97;12.63;;;;;;;19.83;100.00;98972.34;5073347;28;20856;-74
2021/09/15 05:47:52;;;;;;;19.07;17.00;;;;;;;19.97;100.00;98978.06;5073211;28;20454;-73
2021/09/15 05:50:21;;;;;;;14.17;12.87;;;;;;;20.18;100.00;98982.25;5073204;28;20534;-73
2021/09/15 05:52:47;;;;;;;18.10;13.47;;;;;;;20.26;100.00;98981.41;5072629;28;20558;-74
2021/09/15 05:55:16;;;;;;;13.67;12.27;;;;;;;20.14;100.00;98987.16;5072942;28;20474;-73
2021/09/15 05:57:42;;;;;;;15.60;12.93;;;;;;;20.12;100.00;98986.47;5061686;28;20424;-74
2021/09/15 06:00:10;;;;;;;15.20;12.30;;;;;;;20.03;100.00;98984.72;5053301;28;20499;-73
2021/09/15 06:02:36;;;;;;;14.47;12.97;;;;;;;20.04;100.00;98986.47;5052453;28;20539;-73
2021/09/15 06:05:03;;;;;;;14.33;12.00;;;;;;;20.10;100.00;98990.38;5062985;28;20453;-72
2021/09/15 06:07:31;;;;;;;16.13;12.67;;;;;;;20.18;100.00;98983.09;5072557;28;20506;-73
2021/09/15 06:09:57;;;;;;;16.43;11.77;;;;;;;20.17;100.00;98983.25;5072676;28;20514;-73
2021/09/15 06:12:25;;;;;;;14.27;12.77;;;;;;;20.14;100.00;98987.16;5072972;28;20529;-74
2021/09/15 06:14:52;;;;;;;15.07;12.40;;;;;;;20.08;100.00;98978.78;5073142;28;20956;-73
2021/09/15 06:17:19;;;;;;;12.00;10.37;;;;;;;20.26;100.00;98982.28;5073151;28;20513;-73
2021/09/15 06:19:45;;;;;;;12.80;9.10;;;;;;;20.31;100.00;98981.78;5073165;28;20828;-74
2021/09/15 06:22:12;;;;;;;10.03;8.33;;;;;;;20.22;100.00;98990.97;5076981;28;20509;-74
2021/09/15 06:24:38;;;;;;;10.10;9.07;;;;;;;20.38;100.00;98991.88;5077181;28;20852;-73
2021/09/15 06:27:05;;;;;;;11.73;9.27;;;;;;;20.38;100.00;98997.34;5076475;28;20513;-74
2021/09/15 06:29:38;;;;;;;16.33;11.03;;;;;;;20.36;100.00;99001.25;5063336;28;20511;-73
2021/09/15 06:32:05;;;;;;;14.10;10.60;;;;;;;20.30;100.00;98988.25;5056187;28;20909;-72
2021/09/15 06:34:32;;;;;;;17.67;10.80;;;;;;;20.12;100.00;98989.19;5057253;28;20424;-72
2021/09/15 06:36:58;;;;;;;12.40;11.10;;;;;;;20.06;100.00;98978.06;5056762;28;20535;-73
2021/09/15 06:39:25;;;;;;;12.87;11.40;;;;;;;20.04;100.00;98972.78;5056415;28;20439;-73
2021/09/15 06:41:51;;;;;;;16.60;12.13;;;;;;;19.95;100.00;98966.44;5056780;28;20420;-73
2021/09/15 06:44:18;;;;;;;13.77;11.13;;;;;;;19.81;100.00;98975.25;5056318;28;20434;-73
2021/09/15 06:46:46;;;;;;;14.50;12.43;;;;;;;19.85;100.00;98983.97;5056536;28;20447;-73
2021/09/15 06:49:13;;;;;;;17.40;12.53;;;;;;;19.87;100.00;98990.97;5056494;28;20733;-73
2021/09/15 06:51:39;;;;;;;15.77;12.30;;;;;;;19.88;100.00;98978.19;5056717;28;20904;-73
2021/09/15 06:54:06;;;;;;;16.77;13.30;;;;;;;19.58;100.00;98985.84;5056771;28;20517;-74
2021/09/15 06:56:32;;;;;;;17.30;12.03;;;;;;;19.84;100.00;98990.47;5056895;28;20424;-73
2021/09/15 06:58:59;;;;;;;14.00;12.17;;;;;;;19.90;100.00;98993.41;5056278;28;20527;-72
2021/09/15 07:01:28;;;;;;;13.97;12.57;;;;;;;19.86;100.00;98978.34;5056232;28;20855;-72
2021/09/15 07:03:55;;;;;;;16.03;12.83;;;;;;;19.90;100.00;98985.22;5055978;28;20465;-74
2021/09/15 07:06:22;;;;;;;14.13;12.73;;;;;;;19.94;100.00;98986.59;5056781;28;20420;-76
2021/09/15 07:08:51;;;;;;;13.60;10.57;;;;;;;20.25;100.00;99004.28;5055857;28;20510;-73
2021/09/15 07:11:18;;;;;;;10.20;7.67;;;;;;;20.32;100.00;98997.13;5067698;28;20514;-74
2021/09/15 07:13:45;;;;;;;12.17;7.97;;;;;;;20.63;100.00;98997.41;5075981;28;20473;-74
2021/09/15 07:16:11;;;;;;;10.97;9.87;;;;;;;20.89;100.00;98988.22;5075833;28;20534;-73
2021/09/15 07:18:38;;;;;;;12.27;9.60;;;;;;;20.98;100.00;98992.66;5076679;28;20450;-72
2021/09/15 07:21:06;;;;;;;9.00;8.10;;;;;;;21.19;100.00;98989.44;5076445;28;20869;-73
2021/09/15 07:23:33;;;;;;;11.63;7.87;;;;;;;21.24;100.00;98984.28;5075815;28;20435;-74
2021/09/15 07:25:59;;;;;;;7.27;6.67;;;;;;;21.40;100.00;99003.44;5075439;28;20474;-74
2021/09/15 07:28:26;;;;;;;12.17;8.53;;;;;;;21.53;100.00;98983.75;5075530;28;20423;-73
2021/09/15 07:30:53;;;;;;;7.93;6.13;;;;;;;21.44;100.00;98991.13;5075244;28;20459;-73
2021/09/15 07:33:19;;;;;;;8.70;6.73;;;;;;;21.56;100.00;98990.75;5075110;28;20513;-72
2021/09/15 07:35:46;;;;;;;10.67;7.20;;;;;;;21.68;100.00;98992.09;5075529;28;20510;-74
2021/09/15 07:38:14;;;;;;;6.80;6.10;;;;;;;21.73;100.00;98997.91;5075886;28;20916;-74
2021/09/15 07:40:40;;;;;;;8.10;6.47;;;;;;;21.74;100.00;98996.88;5075841;28;20899;-72
2021/09/15 07:43:07;;;;;;;11.03;6.87;;;;;;;21.78;100.00;98997.41;5075349;28;20478;-73
2021/09/15 07:45:34;;;;;;;11.40;7.27;;;;;;;21.75;100.00;98998.56;5075035;28;20427;-73
2021/09/15 07:48:00;;;;;;;11.47;7.13;;;;;;;21.75;100.00;99001.31;5075669;28;20490;-73
2021/09/15 07:50:27;;;;;;;7.27;6.57;;;;;;;21.89;100.00;98997.03;5075589;28;20435;-73
2021/09/15 07:52:53;;;;;;;8.47;6.30;;;;;;;21.87;100.00;99001.81;5075078;28;20498;-73
2021/09/15 07:55:21;;;;;;;8.73;6.67;;;;;;;22.00;100.00;99006.72;5075374;28;20911;-73
2021/09/15 07:57:52;;;;;;;8.33;6.60;;;;;;;22.01;100.00;99011.19;5072646;28;20679;-74
2021/09/15 08:00:19;;;;;;;6.70;5.87;;;;;;;22.09;100.00;99011.13;5055034;28;20436;-74
2021/09/15 08:02:46;;;;;;;7.10;5.60;;;;;;;22.04;99.60;99008.09;5055359;28;20524;-74
2021/09/15 08:05:12;;;;;;;13.43;9.33;;;;;;;22.13;98.90;99014.38;5055106;28;20428;-73
2021/09/15 08:07:39;;;;;;;6.67;5.47;;;;;;;22.03;98.42;99020.09;5055353;28;20813;-73
2021/09/15 08:10:07;;;;;;;12.13;10.70;;;;;;;22.18;98.71;99022.94;5056667;28;20459;-72
2021/09/15 08:12:35;;;;;;;7.90;5.73;;;;;;;22.22;99.74;99022.44;5074989;28;20467;-74
2021/09/15 08:15:01;;;;;;;7.93;6.40;;;;;;;22.36;98.30;99020.81;5074726;28;20486;-74
2021/09/15 08:17:28;;;;;;;9.90;8.10;;;;;;;22.38;98.05;99021.50;5074515;28;20427;-72
2021/09/15 08:19:54;;;;;;;8.40;6.60;;;;;;;22.48;97.43;99032.25;5074799;28;20976;-73
2021/09/15 08:22:21;;;;;;;8.23;7.00;;;;;;;22.42;97.38;99019.25;5074727;28;20926;-73
2021/09/15 08:24:48;;;;;;;7.00;6.03;;;;;;;22.51;95.90;99025.56;5074373;28;20423;-74
2021/09/15 08:27:15;;;;;;;7.20;5.90;;;;;;;22.56;94.97;99026.72;5073916;28;20994;-73
2021/09/15 08:29:43;;;;;;;6.80;5.43;;;;;;;22.59;95.06;99020.88;5073739;28;20506;-73
2021/09/15 08:32:09;;;;;;;9.13;6.37;;;;;;;22.71;95.07;99029.56;5074103;28;20505;-74
2021/09/15 08:34:36;;;;;;;6.50;6.00;;;;;;;22.90;92.53;99029.06;5074011;28;20458;-73
2021/09/15 08:37:03;;;;;;;9.97;9.07;;;;;;;23.01;92.16;99032.47;5073648;28;20521;-73
2021/09/15 08:39:30;;;;;;;7.93;7.23;;;;;;;23.07;90.93;99034.50;5073652;28;20438;-73
2021/09/15 08:41:56;;;;;;;7.23;5.90;;;;;;;23.17;90.76;99039.72;5073845;28;20446;-74
2021/09/15 08:44:23;;;;;;;8.90;6.00;;;;;;;23.15;89.03;99033.56;5073920;28;20896;-74
2021/09/15 08:46:53;;;;;;;7.67;5.50;;;;;;;23.36;89.61;99031.00;5073809;28;20451;-74
2021/09/15 08:49:21;;;;;;;6.47;5.87;;;;;;;23.40;89.71;99032.31;5074096;28;20449;-73
2021/09/15 08:51:47;;;;;;;6.70;5.67;;;;;;;23.35;87.43;99029.28;5074476;28;20517;-73
2021/09/15 08:54:14;;;;;;;10.23;6.40;;;;;;;23.43;86.27;99031.94;5074119;28;20614;-73
2021/09/15 08:56:42;;;;;;;6.80;6.10;;;;;;;23.53;86.31;99034.44;5074136;28;20594;-73
2021/09/15 08:59:09;;;;;;;7.27;6.57;;;;;;;23.66;87.16;99036.56;5073773;28;20853;-73
2021/09/15 09:01:35;;;;;;;7.97;7.00;;;;;;;23.76;86.23;99037.16;5073543;28;20889;-74
2021/09/15 09:04:04;;;;;;;6.93;6.13;;;;;;;23.80;84.45;99037.63;5073931;28;20530;-74
2021/09/15 09:06:33;;;;;;;6.67;5.97;;;;;;;23.79;83.39;99039.53;5073947;28;20427;-74
2021/09/15 09:09:03;;;;;;;7.33;6.70;;;;;;;23.79;84.86;99031.28;5073714;28;20510;-74
2021/09/15 09:11:31;;;;;;;6.53;5.93;;;;;;;23.63;85.04;99039.66;5073626;28;20422;-73
2021/09/15 09:14:00;;;;;;;10.13;7.40;;;;;;;23.83;86.11;99040.00;5073944;28;20463;-73
2021/09/15 09:16:40;;;;;;;9.07;6.30;;;;;;;23.42;85.52;99037.63;5073256;28;20466;-74
2021/09/15 09:19:10;;;;;;;7.40;6.70;;;;;;;23.68;85.83;99038.06;5073900;28;20419;-74
2021/09/15 09:21:38;;;;;;;8.40;7.57;;;;;;;23.79;84.59;99046.91;5073647;28;20762;-74
2021/09/15 09:24:07;;;;;;;5.77;5.27;;;;;;;23.34;85.38;99049.56;5073073;28;20419;-75
2021/09/15 09:26:48;;;;;;;8.40;6.53;;;;;;;23.41;86.32;99045.03;5073056;28;20898;-75
2021/09/15 09:29:16;;;;;;;5.80;5.40;;;;;;;23.28;85.47;99050.28;5073336;28;20510;-73
2021/09/15 09:31:58;;;;;;;6.70;6.10;;;;;;;23.22;87.75;99046.41;5073382;28;20484;-74
2021/09/15 09:34:27;;;;;;;7.07;5.47;;;;;;;23.04;86.79;99049.44;5073553;28;20952;-73
2021/09/15 09:37:01;;;;;;;5.80;5.20;;;;;;;23.01;88.54;99041.56;5073226;28;20844;-74
2021/09/15 09:39:39;;;;;;;8.23;5.93;;;;;;;23.10;89.07;99042.34;5073411;28;20425;-73
2021/09/15 09:42:29;;;;;;;5.50;4.97;;;;;;;22.75;89.88;99039.13;5072957;28;20432;-73
2021/09/15 09:45:10;;;;;;;7.47;5.97;;;;;;;22.79;92.05;99045.09;5072784;28;20439;-73
2021/09/15 09:47:38;;;;;;;5.60;5.10;;;;;;;22.63;92.20;99041.41;5072766;28;20967;-74
2021/09/15 09:50:08;;;;;;;5.00;4.57;;;;;;;22.54;92.22;99034.25;5072695;28;20443;-74
2021/09/15 09:52:51;;;;;;;7.57;4.57;;;;;;;22.56;92.71;99039.59;5073000;28;20937;-74
2021/09/15 09:55:19;;;;;;;5.53;5.03;;;;;;;22.46;92.86;99037.91;5052961;28;20918;-74
2021/09/15 09:57:49;;;;;;;4.77;4.13;;;;;;;22.42;92.60;99038.47;5053064;28;20459;-74
2021/09/15 10:00:18;;;;;;;6.20;5.00;;;;;;;22.43;94.32;99038.28;5053213;28;20475;-72
2021/09/15 10:02:45;;;;;;;8.17;5.00;;;;;;;22.46;94.63;99035.19;5052568;28;20444;-73
2021/09/15 10:05:14;;;;;;;5.47;5.00;;;;;;;22.48;92.87;99041.34;5056333;28;20536;-74
2021/09/15 10:07:43;;;;;;;5.13;4.60;;;;;;;22.58;94.09;99035.63;5072872;28;20953;-74
2021/09/15 10:10:11;;;;;;;6.87;5.83;;;;;;;22.70;91.41;99036.06;5072632;28;20489;-74
2021/09/15 10:12:38;;;;;;;4.90;4.40;;;;;;;22.73;92.00;99034.88;5072173;28;20471;-73
2021/09/15 10:15:07;;;;;;;5.93;4.77;;;;;;;22.90;90.49;99028.22;5072206;28;20431;-73
2021/09/15 10:17:36;;;;;;;5.30;4.60;;;;;;;22.97;89.90;99028.34;5072296;28;20765;-73
2021/09/15 10:20:03;;;;;;;4.97;4.43;;;;;;;22.95;88.48;99020.31;5072215;28;20461;-74
2021/09/15 10:22:33;;;;;;;6.07;4.30;;;;;;;23.09;88.98;99027.78;5072633;28;20426;-74
2021/09/15 10:25:01;;;;;;;9.67;4.43;;;;;;;23.30;87.30;99026.22;5072278;28;20445;-74
2021/09/15 10:27:29;;;;;;;5.47;3.90;;;;;;;23.34;86.31;99027.56;5071898;28;20535;-72
2021/09/15 10:30:07;;;;;;;4.50;3.80;;;;;;;23.28;85.23;99028.31;5072376;28;20427;-73
2021/09/15 10:32:35;;;;;;;4.80;4.00;;;;;;;23.36;85.97;99024.63;5072351;28;20419;-74
2021/09/15 10:35:02;;;;;;;3.83;3.10;;;;;;;23.15;83.66;99014.34;5072340;28;20485;-73
2021/09/15 10:37:52;;;;;;;5.43;3.30;;;;;;;23.04;85.76;99023.84;5072412;28;20439;-73
2021/09/15 10:40:44;;;;;;;5.37;4.80;;;;;;;23.16;86.13;99013.31;5072475;28;20797;-74
2021/09/15 10:43:43;;;;;;;7.63;3.90;;;;;;;23.31;85.82;99014.19;5069811;28;20447;-74
2021/09/15 10:46:21;;;;;;;3.97;3.57;;;;;;;23.35;83.49;99015.53;5072364;28;20541;-73
2021/09/15 10:49:31;;;;;;;5.87;5.27;;;;;;;23.35;84.67;99007.28;5072089;28;20735;-73
2021/09/15 10:52:25;;;;;;;5.93;3.50;;;;;;;23.43;83.18;99009.13;5071867;28;20431;-74
2021/09/15 10:54:55;;;;;;;8.03;4.13;;;;;;;23.66;82.32;99009.91;5070973;28;20574;-74
2021/09/15 10:57:29;;;;;;;4.63;3.67;;;;;;;23.86;80.42;99002.00;5072561;28;20777;-73
2021/09/15 10:59:57;;;;;;;6.83;3.30;;;;;;;23.90;79.42;99003.34;5072128;28;20812;-73
2021/09/15 11:02:27;;;;;;;4.93;3.37;;;;;;;23.76;80.38;99003.31;5072571;28;20442;-74
2021/09/15 11:04:54;;;;;;;4.60;3.70;;;;;;;23.45;82.18;99002.41;5072551;28;20442;-73
2021/09/15 11:07:58;;;;;;;4.70;3.43;;;;;;;23.48;82.44;99009.41;5074309;28;20448;-73
2021/09/15 11:10:37;;;;;;;3.50;3.03;;;;;;;23.36;82.37;99008.16;5055676;28;20498;-73
2021/09/15 11:13:05;;;;;;;4.60;3.20;;;;;;;23.20;84.71;99006.41;5072412;28;20518;-72
2021/09/15 11:15:33;;;;;;;5.13;3.80;;;;;;;23.25;85.05;99006.72;5075753;28;20453;-73
2021/09/15 11:18:00;;;;;;;7.07;6.47;;;;;;;23.21;84.85;99006.22;5075720;28;20454;-73
2021/09/15 11:20:32;;;;;;;7.13;4.63;;;;;;;23.22;85.49;99004.31;5075822;28;20765;-73
2021/09/15 11:23:03;;;;;;;4.70;3.20;;;;;;;23.23;84.08;99008.78;5075158;28;20540;-72
2021/09/15 11:25:30;;;;;;;5.77;3.10;;;;;;;23.35;82.23;99007.28;5073802;28;20537;-73
2021/09/15 11:28:23;;;;;;;5.57;3.47;;;;;;;23.65;81.87;99001.84;5074976;28;20431;-73